Time;durP1;ratioP1;P1;durP2;ratioP2;P2;SDS_P1;SDS_P2;PMS_P1;PMS_P2;Temp;Humidity;BMP_temperature;BMP_pressure;BME280_temperature;BME280_humidity;BME280_pressure;Samples;Min_cycle;Max_cycle;Signal;HPM_P1;HPM_P2
2022/09/22 00:02:19;;;;;;;1.73;1.20;;;;;;;;;;4995615;28;20350;-79
2022/09/22 00:04:45;;;;;;;2.20;1.27;;;;;;;;;;5011807;28;20657;-79
2022/09/22 00:07:11;;;;;;;2.93;1.30;;;;;;;;;;4995465;28;20185;-79
2022/09/22 00:09:37;;;;;;;1.60;1.20;;;;;;;;;;4995194;28;20195;-79
2022/09/22 00:12:03;;;;;;;1.93;1.27;;;;;;;;;;4995423;28;20274;-80
2022/09/22 00:14:29;;;;;;;1.43;1.30;;;;;;;;;;5011578;28;20190;-80
2022/09/22 00:17:00;;;;;;;1.33;1.23;;;;;;;;;;4995492;28;20190;-79
2022/09/22 00:19:27;;;;;;;3.50;1.70;;;;;;;;;;5011259;28;20279;-79
2022/09/22 00:21:53;;;;;;;1.50;1.40;;;;;;;;;;5011365;28;20204;-79
2022/09/22 00:24:23;;;;;;;1.97;1.77;;;;;;;;;;4995092;28;20172;-79
2022/09/22 00:26:50;;;;;;;2.70;1.70;;;;;;;;;;4995664;28;20666;-79
2022/09/22 00:29:16;;;;;;;1.70;1.40;;;;;;;;;;5011165;28;20197;-79
2022/09/22 00:31:42;;;;;;;2.43;1.43;;;;;;;;;;4995107;28;20186;-79
2022/09/22 00:34:13;;;;;;;2.37;1.50;;;;;;;;;;5011326;28;20179;-79
2022/09/22 00:36:39;;;;;;;1.73;1.40;;;;;;;;;;5011275;28;20187;-79
2022/09/22 00:39:05;;;;;;;1.60;1.33;;;;;;;;;;4994455;28;20646;-79
2022/09/22 00:41:34;;;;;;;1.83;1.37;;;;;;;;;;4994950;28;20683;-79
2022/09/22 00:44:16;;;;;;;1.53;1.30;;;;;;;;;;5011222;28;20246;-79
2022/09/22 00:46:43;;;;;;;1.60;1.50;;;;;;;;;;5010910;28;20646;-79
2022/09/22 00:49:12;;;;;;;1.53;1.43;;;;;;;;;;5010930;28;20222;-79
2022/09/22 00:51:39;;;;;;;2.53;1.50;;;;;;;;;;5010776;28;20175;-79
2022/09/22 00:54:06;;;;;;;1.83;1.30;;;;;;;;;;5011111;28;20267;-79
2022/09/22 00:56:39;;;;;;;3.33;1.57;;;;;;;;;;4994784;28;20187;-79
2022/09/22 00:59:08;;;;;;;1.47;1.37;;;;;;;;;;5010666;28;20678;-79
2022/09/22 01:01:39;;;;;;;1.93;1.30;;;;;;;;;;5010818;28;20225;-80
2022/09/22 01:04:05;;;;;;;1.60;1.40;;;;;;;;;;5010584;28;20179;-79
2022/09/22 01:06:32;;;;;;;2.57;1.50;;;;;;;;;;5010686;28;20214;-79
2022/09/22 01:08:59;;;;;;;1.53;1.40;;;;;;;;;;5010335;28;20626;-79
2022/09/22 01:11:26;;;;;;;2.57;1.50;;;;;;;;;;4994500;28;20559;-79
2022/09/22 01:14:03;;;;;;;1.50;1.40;;;;;;;;;;4994847;28;20187;-79
2022/09/22 01:16:39;;;;;;;2.50;1.47;;;;;;;;;;5010540;28;20194;-79
2022/09/22 01:19:24;;;;;;;1.93;1.40;;;;;;;;;;5010161;28;20725;-79
2022/09/22 01:22:10;;;;;;;2.93;1.40;;;;;;;;;;5010440;28;20225;-80
2022/09/22 01:24:40;;;;;;;2.47;1.53;;;;;;;;;;4983582;28;20273;-80
2022/09/22 01:27:17;;;;;;;2.37;1.60;;;;;;;;;;5010458;28;20188;-79
2022/09/22 01:29:49;;;;;;;2.03;1.60;;;;;;;;;;5010090;28;20203;-79
2022/09/22 01:32:18;;;;;;;3.47;2.30;;;;;;;;;;5010017;28;20189;-79
2022/09/22 01:34:47;;;;;;;2.13;1.60;;;;;;;;;;5010329;28;20640;-79
2022/09/22 01:37:25;;;;;;;3.93;1.77;;;;;;;;;;5010205;28;20184;-79
2022/09/22 01:39:55;;;;;;;3.30;1.93;;;;;;;;;;4993772;28;20205;-80
2022/09/22 01:42:27;;;;;;;3.40;1.73;;;;;;;;;;5010128;28;20210;-80
2022/09/22 01:44:55;;;;;;;2.00;1.80;;;;;;;;;;5010013;28;20641;-79
2022/09/22 01:47:21;;;;;;;2.90;1.83;;;;;;;;;;5009832;28;20194;-79
2022/09/22 01:49:50;;;;;;;2.20;1.63;;;;;;;;;;5009575;28;20199;-80
2022/09/22 01:52:19;;;;;;;3.10;2.20;;;;;;;;;;4993653;28;20210;-80
2022/09/22 01:55:06;;;;;;;5.33;2.03;;;;;;;;;;4993716;28;20191;-79
2022/09/22 01:57:47;;;;;;;7.80;2.20;;;;;;;;;;5009678;28;20186;-80
2022/09/22 02:00:13;;;;;;;9.97;2.10;;;;;;;;;;5009396;28;20199;-79
2022/09/22 02:02:58;;;;;;;8.57;2.40;;;;;;;;;;4993424;28;20684;-80
2022/09/22 02:05:30;;;;;;;8.10;2.40;;;;;;;;;;5009428;28;20197;-80
2022/09/22 02:07:58;;;;;;;15.17;2.60;;;;;;;;;;5009509;28;20278;-79
2022/09/22 02:10:29;;;;;;;8.43;2.83;;;;;;;;;;5009121;28;20213;-79
2022/09/22 02:12:55;;;;;;;5.20;2.27;;;;;;;;;;5009679;28;20171;-80
2022/09/22 02:18:08;;;;;;;4.67;2.17;;;;;;;;;;4993430;28;20631;-80
2022/09/22 02:20:35;;;;;;;2.10;1.90;;;;;;;;;;5008870;28;20223;-79
2022/09/22 02:23:01;;;;;;;2.43;1.70;;;;;;;;;;5009136;28;20206;-79
2022/09/22 02:25:28;;;;;;;2.80;1.80;;;;;;;;;;4992805;28;20553;-80
2022/09/22 02:27:55;;;;;;;3.43;2.00;;;;;;;;;;5009458;28;20179;-80
2022/09/22 02:30:22;;;;;;;2.90;2.10;;;;;;;;;;5009061;28;20198;-79
2022/09/22 02:32:49;;;;;;;3.70;2.00;;;;;;;;;;5008972;28;20580;-79
2022/09/22 02:35:15;;;;;;;2.30;1.90;;;;;;;;;;4992942;28;20186;-79
2022/09/22 02:37:47;;;;;;;2.27;1.90;;;;;;;;;;5008942;28;20187;-79
2022/09/22 02:40:20;;;;;;;3.17;1.90;;;;;;;;;;5008769;28;20217;-79
2022/09/22 02:42:55;;;;;;;3.93;2.00;;;;;;;;;;5009004;28;20206;-79
2022/09/22 02:45:21;;;;;;;2.30;1.80;;;;;;;;;;5008984;28;20547;-80
2022/09/22 02:48:07;;;;;;;7.10;2.10;;;;;;;;;;5008860;28;20634;-79
2022/09/22 02:50:34;;;;;;;5.77;1.90;;;;;;;;;;4992148;28;20579;-79
2022/09/22 02:53:12;;;;;;;3.63;1.93;;;;;;;;;;4992595;28;20190;-79
2022/09/22 02:55:38;;;;;;;4.30;2.17;;;;;;;;;;5008929;28;20182;-79
2022/09/22 02:58:04;;;;;;;2.13;1.93;;;;;;;;;;4992545;28;20285;-79
2022/09/22 03:00:31;;;;;;;3.80;1.90;;;;;;;;;;5008275;28;20199;-79
2022/09/22 03:02:57;;;;;;;2.97;1.90;;;;;;;;;;4992723;28;20221;-79
2022/09/22 03:05:24;;;;;;;2.17;1.80;;;;;;;;;;5008607;28;20185;-79
2022/09/22 03:07:50;;;;;;;3.03;1.80;;;;;;;;;;5008444;28;20195;-79
2022/09/22 03:10:16;;;;;;;10.03;2.50;;;;;;;;;;4991914;28;20207;-79
2022/09/22 03:12:42;;;;;;;16.37;3.00;;;;;;;;;;5008656;28;20333;-79
2022/09/22 03:15:10;;;;;;;6.30;2.33;;;;;;;;;;5007524;28;20182;-79
2022/09/22 03:17:35;;;;;;;4.33;1.97;;;;;;;;;;5008649;28;20762;-79
2022/09/22 03:20:02;;;;;;;4.57;2.03;;;;;;;;;;4991889;28;20247;-79
2022/09/22 03:22:28;;;;;;;5.63;2.17;;;;;;;;;;5008057;28;20214;-79
2022/09/22 03:24:54;;;;;;;9.13;2.60;;;;;;;;;;4992210;28;20186;-79
2022/09/22 03:27:20;;;;;;;7.80;2.30;;;;;;;;;;4992037;28;20696;-79
2022/09/22 03:29:46;;;;;;;9.17;2.53;;;;;;;;;;4991476;28;20298;-79
2022/09/22 03:32:13;;;;;;;8.73;2.13;;;;;;;;;;4991986;28;20202;-79
2022/09/22 03:34:38;;;;;;;5.57;2.23;;;;;;;;;;5008424;28;20198;-79
2022/09/22 03:37:05;;;;;;;8.57;2.10;;;;;;;;;;4991828;28;20190;-79
2022/09/22 03:39:30;;;;;;;5.50;2.03;;;;;;;;;;4991679;28;20207;-79
2022/09/22 03:41:57;;;;;;;3.77;2.00;;;;;;;;;;4991896;28;20306;-79
2022/09/22 03:44:25;;;;;;;4.80;1.70;;;;;;;;;;4991775;28;20558;-79
2022/09/22 03:46:52;;;;;;;2.17;1.90;;;;;;;;;;5008045;28;20183;-79
2022/09/22 03:49:18;;;;;;;3.17;1.90;;;;;;;;;;5008097;28;20201;-79
2022/09/22 03:51:44;;;;;;;2.47;1.90;;;;;;;;;;5008196;28;20210;-79
2022/09/22 03:54:11;;;;;;;3.20;1.80;;;;;;;;;;5008047;28;20261;-80
2022/09/22 03:56:37;;;;;;;1.90;1.80;;;;;;;;;;4991814;28;20280;-79
2022/09/22 03:59:04;;;;;;;3.60;2.00;;;;;;;;;;5007907;28;20203;-79
2022/09/22 04:01:30;;;;;;;1.80;1.70;;;;;;;;;;5008108;28;20214;-79
2022/09/22 04:03:56;;;;;;;2.97;1.90;;;;;;;;;;5007838;28;20591;-79
2022/09/22 04:06:22;;;;;;;2.20;1.90;;;;;;;;;;4991818;28;20179;-79
2022/09/22 04:08:48;;;;;;;2.60;2.03;;;;;;;;;;4991562;28;20207;-79
2022/09/22 04:11:14;;;;;;;5.40;2.10;;;;;;;;;;5008054;28;20183;-79
2022/09/22 04:13:40;;;;;;;2.20;1.90;;;;;;;;;;5007597;28;20179;-79
2022/09/22 04:16:06;;;;;;;2.10;1.90;;;;;;;;;;4991495;28;20557;-79
2022/09/22 04:18:32;;;;;;;3.33;1.80;;;;;;;;;;4991235;28;20190;-79
2022/09/22 04:20:59;;;;;;;2.67;2.10;;;;;;;;;;5007580;28;20234;-79
2022/09/22 04:23:25;;;;;;;3.97;1.83;;;;;;;;;;5007846;28;20204;-79
2022/09/22 04:25:52;;;;;;;2.37;2.03;;;;;;;;;;4991366;28;20193;-79
2022/09/22 04:28:18;;;;;;;2.43;2.00;;;;;;;;;;4995070;28;20183;-79
2022/09/22 04:30:44;;;;;;;2.10;1.90;;;;;;;;;;4995302;28;20206;-79
2022/09/22 04:33:10;;;;;;;4.20;1.97;;;;;;;;;;5011246;28;20256;-79
2022/09/22 04:35:36;;;;;;;3.03;1.80;;;;;;;;;;5011330;28;20225;-79
2022/09/22 04:38:03;;;;;;;2.97;1.90;;;;;;;;;;5011304;28;20266;-79
2022/09/22 04:40:29;;;;;;;2.60;2.00;;;;;;;;;;4994698;28;20715;-79
2022/09/22 04:42:55;;;;;;;2.27;1.70;;;;;;;;;;5011123;28;20210;-79
2022/09/22 04:45:21;;;;;;;2.93;1.70;;;;;;;;;;4994751;28;20188;-79
2022/09/22 04:47:48;;;;;;;3.43;1.80;;;;;;;;;;4994893;28;20191;-79
2022/09/22 04:50:15;;;;;;;2.73;1.90;;;;;;;;;;5010759;28;20227;-79
2022/09/22 04:52:48;;;;;;;3.90;2.20;;;;;;;;;;4994847;28;20208;-79
2022/09/22 04:55:15;;;;;;;4.97;2.23;;;;;;;;;;5010759;28;20582;-79
2022/09/22 04:57:41;;;;;;;3.83;2.30;;;;;;;;;;5011044;28;20208;-79
2022/09/22 05:00:08;;;;;;;3.03;2.27;;;;;;;;;;5010670;28;20699;-79
2022/09/22 05:02:34;;;;;;;3.53;2.23;;;;;;;;;;4994656;28;20223;-79
2022/09/22 05:05:00;;;;;;;3.80;2.10;;;;;;;;;;5010680;28;20180;-79
2022/09/22 05:07:27;;;;;;;7.33;2.40;;;;;;;;;;4994576;28;20182;-80
2022/09/22 05:09:53;;;;;;;11.27;2.87;;;;;;;;;;5010606;28;20205;-81
2022/09/22 05:12:20;;;;;;;12.70;2.50;;;;;;;;;;4994614;28;20184;-80
2022/09/22 05:14:46;;;;;;;13.40;2.63;;;;;;;;;;4994382;28;20211;-80
2022/09/22 05:17:12;;;;;;;17.30;3.90;;;;;;;;;;4994450;28;20190;-80
2022/09/22 05:19:38;;;;;;;16.97;2.97;;;;;;;;;;5020336;23;20227;-79
2022/09/22 05:22:04;;;;;;;29.53;2.87;;;;;;;;;;4939410;29;20207;-79
2022/09/22 05:24:31;;;;;;;16.50;2.70;;;;;;;;;;4939246;29;20187;-79
2022/09/22 05:26:57;;;;;;;12.07;2.50;;;;;;;;;;4971466;28;20208;-79
2022/09/22 05:29:23;;;;;;;10.53;2.90;;;;;;;;;;4972844;28;20276;-79
2022/09/22 05:31:49;;;;;;;6.93;2.53;;;;;;;;;;4970915;28;20214;-80
2022/09/22 05:34:16;;;;;;;8.40;2.60;;;;;;;;;;4971107;28;20187;-79
2022/09/22 05:36:41;;;;;;;6.97;2.30;;;;;;;;;;4970945;28;20240;-80
2022/09/22 05:39:08;;;;;;;4.00;2.43;;;;;;;;;;4969757;28;20298;-78
2022/09/22 05:41:34;;;;;;;15.37;4.40;;;;;;;;;;4971049;28;20216;-79
2022/09/22 05:44:00;;;;;;;28.53;14.70;;;;;;;;;;4970981;28;20211;-79
2022/09/22 05:46:26;;;;;;;14.97;3.53;;;;;;;;;;4954839;28;20773;-79
2022/09/22 05:48:52;;;;;;;7.47;4.20;;;;;;;;;;4970405;28;20186;-79
2022/09/22 05:51:18;;;;;;;9.37;2.93;;;;;;;;;;4970781;28;20186;-79
2022/09/22 05:53:44;;;;;;;9.90;2.80;;;;;;;;;;4970547;28;20612;-79
2022/09/22 05:56:10;;;;;;;9.33;2.10;;;;;;;;;;4970535;28;20199;-79
2022/09/22 05:58:36;;;;;;;15.67;2.93;;;;;;;;;;4970493;28;20181;-78
2022/09/22 06:01:03;;;;;;;7.53;2.47;;;;;;;;;;4970063;28;20232;-78
2022/09/22 06:03:29;;;;;;;4.83;2.50;;;;;;;;;;4970334;28;20175;-78
2022/09/22 06:05:55;;;;;;;10.67;3.53;;;;;;;;;;4970598;28;20175;-78
2022/09/22 06:08:21;;;;;;;8.83;3.23;;;;;;;;;;4970384;28;20187;-78
2022/09/22 06:10:50;;;;;;;5.67;3.03;;;;;;;;;;4970237;28;20605;-77
2022/09/22 06:13:16;;;;;;;25.07;3.53;;;;;;;;;;4970430;28;20187;-77
2022/09/22 06:15:47;;;;;;;21.63;3.70;;;;;;;;;;4970224;28;20276;-77
2022/09/22 06:18:16;;;;;;;12.97;3.23;;;;;;;;;;4970078;28;20552;-77
2022/09/22 06:20:43;;;;;;;10.47;3.00;;;;;;;;;;4954984;28;20229;-77
2022/09/22 06:23:09;;;;;;;18.03;3.80;;;;;;;;;;4970156;28;20268;-77
2022/09/22 06:25:35;;;;;;;5.90;3.23;;;;;;;;;;4970290;28;20184;-78
2022/09/22 06:28:03;;;;;;;25.70;3.80;;;;;;;;;;4961288;28;20195;-78
2022/09/22 06:30:30;;;;;;;6.87;2.93;;;;;;;;;;4951622;28;20214;-77
2022/09/22 06:32:59;;;;;;;13.23;3.83;;;;;;;;;;4970011;28;20265;-77
2022/09/22 06:35:27;;;;;;;5.17;2.70;;;;;;;;;;4970503;28;20624;-77
2022/09/22 06:37:56;;;;;;;8.20;2.80;;;;;;;;;;4970378;28;20188;-77
2022/09/22 06:40:23;;;;;;;7.50;3.10;;;;;;;;;;4970288;28;20215;-77
2022/09/22 06:42:49;;;;;;;11.23;3.03;;;;;;;;;;4955198;28;20197;-77
2022/09/22 06:45:16;;;;;;;4.77;2.37;;;;;;;;;;4955336;28;20263;-78
2022/09/22 06:47:42;;;;;;;5.20;2.40;;;;;;;;;;4970035;28;20305;-78
2022/09/22 06:50:08;;;;;;;4.97;3.00;;;;;;;;;;4969699;28;20228;-78
2022/09/22 06:52:35;;;;;;;5.30;2.67;;;;;;;;;;4954080;28;20182;-78
2022/09/22 06:55:02;;;;;;;6.00;2.60;;;;;;;;;;4954491;28;20255;-78
2022/09/22 06:57:29;;;;;;;3.17;2.87;;;;;;;;;;4953437;28;20277;-78
2022/09/22 06:59:55;;;;;;;3.90;2.43;;;;;;;;;;4953857;28;20210;-78
2022/09/22 07:02:26;;;;;;;7.17;2.80;;;;;;;;;;4953590;29;20210;-78
2022/09/22 07:04:52;;;;;;;4.87;2.60;;;;;;;;;;4953900;29;20173;-78
2022/09/22 07:07:18;;;;;;;3.80;3.00;;;;;;;;;;4954028;28;20309;-78
2022/09/22 07:09:45;;;;;;;7.37;5.20;;;;;;;;;;4953788;28;20331;-78
2022/09/22 07:12:11;;;;;;;4.50;3.77;;;;;;;;;;4953771;29;20184;-78
2022/09/22 07:14:37;;;;;;;7.47;4.00;;;;;;;;;;4953090;28;20222;-78
2022/09/22 07:17:03;;;;;;;5.10;3.53;;;;;;;;;;4967232;28;20198;-78
2022/09/22 07:19:35;;;;;;;5.90;3.23;;;;;;;;;;4956380;28;20226;-78
2022/09/22 07:22:02;;;;;;;4.13;3.10;;;;;;;;;;4938581;29;20548;-78
2022/09/22 07:24:28;;;;;;;6.30;3.33;;;;;;;;;;4938034;29;20195;-78
2022/09/22 07:26:54;;;;;;;7.20;3.37;;;;;;;;;;4953816;28;20294;-78
2022/09/22 07:29:20;;;;;;;4.30;2.80;;;;;;;;;;4953280;28;20653;-78
2022/09/22 07:34:58;;;;;;;5.13;3.40;;;;;;;;;;4954690;29;20199;-78
2022/09/22 07:37:24;;;;;;;6.23;3.20;;;;;;;;;;4937509;29;20173;-78
2022/09/22 07:39:50;;;;;;;5.33;3.37;;;;;;;;;;4953207;29;20200;-78
2022/09/22 07:42:16;;;;;;;2.57;2.37;;;;;;;;;;4937276;29;20239;-78
2022/09/22 07:50:11;;;;;;;4.80;2.90;;;;;;;;;;4953496;29;20204;-78
2022/09/22 07:52:37;;;;;;;4.83;2.73;;;;;;;;;;4937473;29;20193;-78
2022/09/22 07:55:03;;;;;;;4.43;2.60;;;;;;;;;;4937678;29;20181;-78
2022/09/22 07:57:30;;;;;;;2.53;2.33;;;;;;;;;;4953380;28;20190;-78
2022/09/22 07:59:56;;;;;;;3.10;2.80;;;;;;;;;;4937172;29;20202;-78
2022/09/22 08:02:24;;;;;;;3.10;2.90;;;;;;;;;;4951344;28;20229;-78
2022/09/22 08:04:50;;;;;;;3.30;2.63;;;;;;;;;;4953946;28;20194;-78
2022/09/22 08:07:16;;;;;;;3.07;2.77;;;;;;;;;;4943676;28;20193;-78
2022/09/22 08:09:42;;;;;;;5.03;2.70;;;;;;;;;;4964021;28;20297;-78
2022/09/22 08:12:12;;;;;;;4.80;2.57;;;;;;;;;;4972573;28;20190;-78
2022/09/22 08:14:38;;;;;;;2.93;2.63;;;;;;;;;;4973057;28;20211;-78
2022/09/22 08:17:09;;;;;;;3.00;2.70;;;;;;;;;;4972965;28;20219;-78
2022/09/22 08:19:45;;;;;;;4.60;2.90;;;;;;;;;;4972273;28;20722;-78
2022/09/22 08:22:11;;;;;;;3.03;2.73;;;;;;;;;;4970615;28;20223;-78
2022/09/22 08:24:37;;;;;;;3.47;3.17;;;;;;;;;;4958314;28;20254;-78
2022/09/22 08:27:03;;;;;;;3.37;3.07;;;;;;;;;;4961031;28;20188;-78
2022/09/22 08:29:30;;;;;;;3.20;2.90;;;;;;;;;;4955932;28;20197;-78
2022/09/22 08:31:56;;;;;;;3.50;3.13;;;;;;;;;;4940595;29;20187;-77
2022/09/22 08:34:22;;;;;;;3.73;3.13;;;;;;;;;;4956383;28;20194;-78
2022/09/22 08:36:48;;;;;;;3.13;2.83;;;;;;;;;;4957458;28;20178;-78
2022/09/22 08:39:15;;;;;;;3.60;3.30;;;;;;;;;;4939311;29;20212;-78
2022/09/22 08:41:47;;;;;;;3.30;3.00;;;;;;;;;;4956131;28;20266;-78
2022/09/22 08:44:14;;;;;;;2.97;2.77;;;;;;;;;;4956210;28;20212;-78
2022/09/22 08:46:44;;;;;;;2.90;2.70;;;;;;;;;;4957458;28;20224;-78
2022/09/22 08:52:16;;;;;;;3.77;2.53;;;;;;;;;;4957379;29;20185;-78
2022/09/22 08:54:43;;;;;;;3.20;2.90;;;;;;;;;;4957633;28;20236;-78
2022/09/22 08:57:28;;;;;;;3.80;2.77;;;;;;;;;;4940449;29;20192;-78
2022/09/22 09:00:05;;;;;;;2.70;2.50;;;;;;;;;;4955848;28;20634;-78
2022/09/22 09:02:33;;;;;;;2.80;2.60;;;;;;;;;;4956081;28;20208;-78
2022/09/22 09:04:59;;;;;;;2.60;2.40;;;;;;;;;;4956204;28;20173;-78
2022/09/22 09:07:31;;;;;;;3.43;2.57;;;;;;;;;;4955903;28;20528;-78
2022/09/22 09:10:16;;;;;;;3.30;2.40;;;;;;;;;;4955906;28;20196;-78
2022/09/22 09:13:03;;;;;;;3.00;2.60;;;;;;;;;;4955275;28;20189;-78
2022/09/22 09:15:29;;;;;;;3.90;2.40;;;;;;;;;;4951842;28;20292;-78
2022/09/22 09:17:58;;;;;;;2.67;2.30;;;;;;;;;;4956033;28;20185;-78
2022/09/22 09:20:37;;;;;;;4.27;1.83;;;;;;;;;;4955436;28;20537;-77
2022/09/22 09:23:05;;;;;;;2.43;2.00;;;;;;;;;;4955927;28;20572;-76
2022/09/22 09:25:35;;;;;;;1.87;1.67;;;;;;;;;;4955588;29;20625;-77
2022/09/22 09:28:04;;;;;;;3.23;2.30;;;;;;;;;;4955687;28;20181;-77
2022/09/22 09:30:33;;;;;;;2.10;1.90;;;;;;;;;;4956374;28;20200;-77
2022/09/22 09:33:01;;;;;;;2.40;2.20;;;;;;;;;;4971421;28;20188;-77
2022/09/22 09:35:34;;;;;;;2.73;1.93;;;;;;;;;;4971791;28;20189;-77
2022/09/22 09:38:01;;;;;;;1.50;1.40;;;;;;;;;;4971584;28;20225;-77
2022/09/22 09:40:27;;;;;;;3.53;1.80;;;;;;;;;;4956188;28;20208;-77
2022/09/22 09:43:02;;;;;;;2.17;1.77;;;;;;;;;;4955592;28;20271;-77
2022/09/22 09:45:31;;;;;;;2.53;1.73;;;;;;;;;;4971332;28;20240;-76
2022/09/22 09:48:21;;;;;;;2.17;1.80;;;;;;;;;;4956246;28;20177;-76
2022/09/22 09:50:47;;;;;;;1.93;1.70;;;;;;;;;;4949678;29;20201;-76
2022/09/22 09:53:24;;;;;;;3.63;1.70;;;;;;;;;;4971318;28;20185;-76
2022/09/22 09:55:50;;;;;;;2.30;1.70;;;;;;;;;;4971432;28;20196;-76
2022/09/22 10:00:30;;;;;;;1.63;1.47;;;;;;;;;;4955229;28;20177;-76
2022/09/22 10:01:03;;;;;;;2.17;1.50;;;;;;;;;;4954639;28;20216;-76
2022/09/22 10:03:30;;;;;;;1.50;1.40;;;;;;;;;;4955211;28;20185;-76
2022/09/22 10:06:01;;;;;;;4.57;1.70;;;;;;;;;;4970886;28;20216;-76
2022/09/22 10:08:30;;;;;;;1.80;1.57;;;;;;;;;;4955320;28;20215;-76
2022/09/22 10:10:58;;;;;;;2.87;1.60;;;;;;;;;;4970605;28;20295;-76
2022/09/22 10:13:34;;;;;;;2.37;1.60;;;;;;;;;;4955852;28;20252;-76
2022/09/22 10:16:00;;;;;;;2.33;1.80;;;;;;;;;;4954619;28;20254;-78
2022/09/22 10:18:39;;;;;;;3.77;1.70;;;;;;;;;;4955913;28;20191;-77
2022/09/22 10:21:11;;;;;;;2.40;1.30;;;;;;;;;;4955590;28;20215;-77
2022/09/22 10:23:40;;;;;;;3.10;1.47;;;;;;;;;;4956060;28;20609;-77
2022/09/22 10:26:17;;;;;;;3.30;1.47;;;;;;;;;;4955377;28;20176;-77
2022/09/22 10:28:49;;;;;;;4.60;1.47;;;;;;;;;;4970758;28;20177;-77
2022/09/22 10:31:24;;;;;;;1.50;1.40;;;;;;;;;;4970775;28;20274;-78
2022/09/22 10:33:54;;;;;;;2.37;1.20;;;;;;;;;;4954311;28;20231;-77
2022/09/22 10:36:24;;;;;;;1.30;1.20;;;;;;;;;;4955878;28;20170;-78
2022/09/22 10:38:50;;;;;;;2.80;1.50;;;;;;;;;;4954874;28;20527;-78
2022/09/22 10:41:18;;;;;;;3.03;1.27;;;;;;;;;;4954178;29;20176;-78
2022/09/22 10:44:07;;;;;;;2.20;1.40;;;;;;;;;;4970417;28;20225;-78
2022/09/22 10:46:33;;;;;;;1.57;1.33;;;;;;;;;;4948336;29;20603;-77
2022/09/22 10:48:59;;;;;;;1.90;1.13;;;;;;;;;;4970196;28;20177;-78
2022/09/22 10:51:44;;;;;;;1.60;1.23;;;;;;;;;;4970109;28;20181;-77
2022/09/22 10:54:16;;;;;;;1.57;1.20;;;;;;;;;;4970294;28;20204;-78
2022/09/22 10:56:52;;;;;;;5.20;3.90;;;;;;;;;;4969931;28;20251;-78
2022/09/22 10:59:25;;;;;;;1.80;1.33;;;;;;;;;;4953946;28;20215;-78
2022/09/22 11:02:11;;;;;;;2.57;1.23;;;;;;;;;;4970180;28;20192;-77
2022/09/22 11:04:37;;;;;;;1.53;1.20;;;;;;;;;;4969899;28;20235;-77
2022/09/22 11:12:57;;;;;;;2.33;1.30;;;;;;;;;;4954904;29;20651;-77
2022/09/22 11:15:41;;;;;;;1.83;1.20;;;;;;;;;;4969965;28;20180;-77
2022/09/22 11:18:07;;;;;;;1.83;1.20;;;;;;;;;;4955107;28;20165;-77
2022/09/22 11:20:40;;;;;;;1.57;1.07;;;;;;;;;;5017204;23;20282;-79
2022/09/22 11:23:25;;;;;;;3.73;1.57;;;;;;;;;;4984299;28;20199;-79
2022/09/22 11:25:56;;;;;;;1.90;1.30;;;;;;;;;;4993541;28;20167;-79
2022/09/22 11:28:42;;;;;;;3.30;1.30;;;;;;;;;;4985159;28;20172;-79
2022/09/22 11:31:09;;;;;;;2.40;1.00;;;;;;;;;;4972312;28;20188;-79
2022/09/22 11:34:00;;;;;;;1.80;1.10;;;;;;;;;;4987196;28;20188;-79
2022/09/22 11:36:32;;;;;;;1.17;0.90;;;;;;;;;;4991818;28;20231;-78
2022/09/22 11:39:10;;;;;;;1.97;1.07;;;;;;;;;;4993989;28;20175;-79
2022/09/22 11:41:41;;;;;;;1.00;0.90;;;;;;;;;;4994428;28;20530;-79
2022/09/22 11:47:26;;;;;;;0.80;0.80;;;;;;;;;;4994227;28;20158;-79
2022/09/22 11:50:07;;;;;;;2.03;0.90;;;;;;;;;;4993943;28;20662;-79
2022/09/22 11:52:45;;;;;;;1.67;1.10;;;;;;;;;;4992779;28;20712;-79
2022/09/22 11:55:30;;;;;;;2.22;0.90;;;;;;;;;;4992690;28;20552;-79
2022/09/22 11:57:58;;;;;;;1.50;1.00;;;;;;;;;;4992348;28;20238;-79
2022/09/22 12:00:24;;;;;;;3.00;1.20;;;;;;;;;;4992506;28;20226;-79
2022/09/22 12:02:55;;;;;;;2.07;1.10;;;;;;;;;;4992474;28;20206;-79
2022/09/22 12:05:27;;;;;;;1.90;0.95;;;;;;;;;;4992248;28;20183;-79
2022/09/22 12:07:58;;;;;;;1.67;0.95;;;;;;;;;;4992564;28;20183;-79
2022/09/22 12:10:30;;;;;;;1.08;0.90;;;;;;;;;;4992418;28;20196;-79
2022/09/22 12:12:56;;;;;;;2.17;0.98;;;;;;;;;;4992412;28;20191;-79
2022/09/22 12:15:28;;;;;;;1.63;1.00;;;;;;;;;;4992471;28;20626;-79
2022/09/22 12:18:00;;;;;;;1.05;0.80;;;;;;;;;;4992617;28;20190;-79
2022/09/22 12:20:33;;;;;;;0.85;0.80;;;;;;;;;;4993124;28;20269;-79
2022/09/22 12:23:16;;;;;;;1.60;0.90;;;;;;;;;;4993664;28;20195;-79
2022/09/22 12:25:46;;;;;;;1.23;1.00;;;;;;;;;;4992658;28;20677;-79
2022/09/22 12:28:19;;;;;;;1.35;0.93;;;;;;;;;;4992620;28;20225;-79
2022/09/22 12:30:58;;;;;;;1.02;0.93;;;;;;;;;;4976241;28;20641;-79
2022/09/22 12:33:25;;;;;;;1.42;1.02;;;;;;;;;;4992165;28;20171;-79
2022/09/22 12:35:53;;;;;;;1.10;1.00;;;;;;;;;;4976128;28;20184;-79
2022/09/22 12:38:21;;;;;;;2.05;1.10;;;;;;;;;;4992602;28;20275;-79
2022/09/22 12:40:52;;;;;;;3.15;0.90;;;;;;;;;;4992450;28;20284;-79
2022/09/22 12:46:24;;;;;;;1.45;1.00;;;;;;;;;;4993707;28;20191;-79
2022/09/22 12:48:50;;;;;;;2.25;0.90;;;;;;;;;;4978914;28;20664;-79
2022/09/22 12:51:37;;;;;;;1.13;0.90;;;;;;;;;;4980243;28;20199;-79
2022/09/22 12:54:21;;;;;;;1.40;0.90;;;;;;;;;;4996414;28;20197;-79
2022/09/22 12:56:56;;;;;;;4.32;1.25;;;;;;;;;;4995932;28;20661;-79
2022/09/22 12:59:37;;;;;;;2.60;1.10;;;;;;;;;;4995967;28;20202;-79
2022/09/22 13:02:16;;;;;;;1.80;1.10;;;;;;;;;;4995563;28;20219;-79
2022/09/22 13:04:54;;;;;;;1.37;1.03;;;;;;;;;;4995291;28;20171;-79
2022/09/22 13:07:39;;;;;;;2.13;0.90;;;;;;;;;;4995575;28;20176;-79
2022/09/22 13:10:24;;;;;;;2.77;1.40;;;;;;;;;;4995262;28;20203;-79
2022/09/22 13:13:04;;;;;;;1.75;0.85;;;;;;;;;;4996771;28;20187;-79
2022/09/22 13:15:46;;;;;;;1.63;0.90;;;;;;;;;;4995304;28;20175;-79
2022/09/22 13:18:38;;;;;;;1.48;0.90;;;;;;;;;;4996835;28;20176;-79
2022/09/22 13:21:13;;;;;;;1.25;1.00;;;;;;;;;;4995320;28;20237;-79
2022/09/22 13:23:52;;;;;;;6.35;1.00;;;;;;;;;;4996819;28;20180;-79
2022/09/22 13:26:20;;;;;;;1.48;0.80;;;;;;;;;;4996508;28;20163;-79
2022/09/22 13:28:58;;;;;;;1.65;0.82;;;;;;;;;;4995198;28;20203;-79
2022/09/22 13:31:25;;;;;;;1.83;0.90;;;;;;;;;;4984752;28;20231;-79
2022/09/22 13:33:51;;;;;;;0.98;0.90;;;;;;;;;;4975806;28;20169;-79
2022/09/22 13:36:18;;;;;;;0.80;0.80;;;;;;;;;;4976043;28;20235;-79
2022/09/22 13:38:49;;;;;;;0.88;0.80;;;;;;;;;;4975617;28;20572;-79
2022/09/22 13:41:33;;;;;;;1.48;0.70;;;;;;;;;;4975545;28;20283;-79
2022/09/22 13:44:12;;;;;;;0.93;0.80;;;;;;;;;;4976370;28;20345;-79
2022/09/22 13:46:43;;;;;;;1.40;0.82;;;;;;;;;;4975247;28;20176;-79
2022/09/22 13:49:11;;;;;;;1.27;0.80;;;;;;;;;;4959193;28;20268;-79
2022/09/22 13:51:37;;;;;;;1.85;0.90;;;;;;;;;;4975026;28;20204;-79
2022/09/22 13:54:03;;;;;;;1.90;0.90;;;;;;;;;;4975129;28;20539;-79
2022/09/22 13:56:30;;;;;;;0.80;0.80;;;;;;;;;;4959465;28;20180;-79
2022/09/22 13:58:58;;;;;;;2.70;1.00;;;;;;;;;;4974666;28;20549;-79
2022/09/22 14:01:25;;;;;;;2.03;0.90;;;;;;;;;;4975352;28;20651;-79
2022/09/22 14:03:52;;;;;;;1.48;0.73;;;;;;;;;;4975114;28;20561;-79
2022/09/22 14:06:19;;;;;;;2.05;1.00;;;;;;;;;;4992389;28;20189;-79
2022/09/22 14:08:47;;;;;;;4.05;2.35;;;;;;;;;;4989261;28;20183;-79
2022/09/22 14:11:23;;;;;;;2.97;1.50;;;;;;;;;;4997196;28;20266;-79
2022/09/22 14:13:53;;;;;;;1.50;1.20;;;;;;;;;;5013701;28;20198;-79
2022/09/22 14:16:22;;;;;;;0.95;0.85;;;;;;;;;;5010321;28;20194;-79
2022/09/22 14:18:50;;;;;;;0.90;0.90;;;;;;;;;;5003538;28;20576;-79
2022/09/22 14:21:16;;;;;;;2.05;0.90;;;;;;;;;;4983594;28;20605;-79
2022/09/22 14:23:44;;;;;;;1.00;0.80;;;;;;;;;;5008471;28;20242;-79
2022/09/22 14:26:23;;;;;;;1.25;0.75;;;;;;;;;;5006721;28;20175;-79
2022/09/22 14:28:49;;;;;;;1.85;0.80;;;;;;;;;;5012999;28;20228;-79
2022/09/22 14:31:20;;;;;;;0.75;0.70;;;;;;;;;;5013026;28;20195;-79
2022/09/22 14:33:46;;;;;;;2.30;0.90;;;;;;;;;;5014674;28;20175;-79
2022/09/22 14:36:16;;;;;;;1.27;0.88;;;;;;;;;;4996610;28;20269;-79
2022/09/22 14:38:42;;;;;;;1.63;0.80;;;;;;;;;;5013017;28;20179;-79
2022/09/22 14:41:24;;;;;;;1.70;0.80;;;;;;;;;;4996524;28;20696;-79
2022/09/22 14:43:51;;;;;;;1.75;0.70;;;;;;;;;;5013162;28;20186;-79
2022/09/22 14:46:22;;;;;;;1.23;0.90;;;;;;;;;;4997079;28;20179;-79
2022/09/22 14:48:49;;;;;;;1.23;0.80;;;;;;;;;;5012983;28;20186;-79
2022/09/22 14:51:19;;;;;;;2.15;0.90;;;;;;;;;;5012819;28;20187;-79
2022/09/22 14:53:48;;;;;;;1.10;0.70;;;;;;;;;;4996557;28;20650;-79
2022/09/22 14:56:19;;;;;;;0.82;0.82;;;;;;;;;;5012556;28;20171;-79
2022/09/22 14:58:48;;;;;;;1.13;0.70;;;;;;;;;;5012687;28;20202;-79
2022/09/22 15:04:29;;;;;;;0.88;0.82;;;;;;;;;;5012849;28;20190;-79
2022/09/22 15:06:58;;;;;;;1.40;0.65;;;;;;;;;;5013666;28;20609;-79
2022/09/22 15:09:37;;;;;;;0.75;0.70;;;;;;;;;;4996502;28;20203;-79
2022/09/22 15:12:04;;;;;;;1.27;0.88;;;;;;;;;;5012663;28;20551;-80
2022/09/22 15:14:39;;;;;;;0.70;0.70;;;;;;;;;;5013429;28;20258;-80
2022/09/22 15:20:11;;;;;;;1.90;0.90;;;;;;;;;;5013812;28;20217;-80
2022/09/22 15:22:37;;;;;;;0.80;0.80;;;;;;;;;;4996828;28;20221;-80
2022/09/22 15:25:03;;;;;;;0.80;0.75;;;;;;;;;;5013027;28;20171;-80
2022/09/22 15:27:30;;;;;;;2.20;0.90;;;;;;;;;;4996657;28;20179;-80
2022/09/22 15:29:56;;;;;;;0.88;0.80;;;;;;;;;;4996293;28;20210;-80
2022/09/22 15:32:22;;;;;;;1.00;0.75;;;;;;;;;;5013072;28;20199;-80